Weather at Phoenix Sky Harbor International Airport

Public forecast

Using degrees Fahrenheit for public forecast. Weather courtesy of forecast.io.

Current aviation weather report (METAR) for Phoenix Sky Harbor International Airport

Retrieved 2022/05/23 06:51 UTC (33 minutes ago):

KPHX 230651Z 29004KT 10SM CLR 29/M07 A2982 RMK AO2 SLP078 T02941072 403610217

Aviation forecast (TAF) for Phoenix Sky Harbor International Airport

Retrieved 2022/05/23 06:22 UTC (1 hour ago):

TAF KPHX 230520Z 2306/2412 27005KT P6SM SCT250 FM231000 09005KT P6SM BKN250 FM231700 VRB06KT P6SM SCT250 FM232100 25010G20KT P6SM SCT250 FM240500 27009KT P6SM FEW250